Time;durP1;ratioP1;P1;durP2;ratioP2;P2;SDS_P1;SDS_P2;PMS_P1;PMS_P2;Temp;Humidity;BMP_temperature;BMP_pressure;BME280_temperature;BME280_humidity;BME280_pressure;Samples;Min_cycle;Max_cycle;Signal;HPM_P1;HPM_P2
2023/12/18 00:02:53;;;;;;;;;;;;;;;3.79;96.88;102538.00;4899910;29;20356;-74
2023/12/18 00:05:56;;;;;;;;;;;;;;;3.77;96.59;102531.97;4900001;29;20284;-73
2023/12/18 00:08:59;;;;;;;;;;;;;;;3.71;95.95;102518.97;4899778;29;19926;-73
2023/12/18 00:12:02;;;;;;;;;;;;;;;3.72;96.03;102515.53;4891936;29;19923;-73
2023/12/18 00:15:06;;;;;;;;;;;;;;;3.40;96.42;102513.53;4900215;29;19963;-73
2023/12/18 00:18:10;;;;;;;;;;;;;;;3.44;97.91;102506.66;4900215;29;19975;-73
2023/12/18 00:21:13;;;;;;;;;;;;;;;3.45;96.96;102500.66;4892912;29;20276;-73
2023/12/18 00:24:18;;;;;;;;;;;;;;;3.52;96.51;102514.50;4899523;29;19926;-73
2023/12/18 00:27:22;;;;;;;;;;;;;;;3.59;94.42;102509.38;4899224;29;20002;-74
2023/12/18 00:30:24;;;;;;;;;;;;;;;3.49;93.08;102508.44;4899433;29;19922;-74
2023/12/18 00:33:27;;;;;;;;;;;;;;;3.49;93.29;102503.25;4899859;29;19934;-73
2023/12/18 00:36:30;;;;;;;;;;;;;;;3.28;93.88;102513.41;4899680;29;20029;-73
2023/12/18 00:39:33;;;;;;;;;;;;;;;3.23;93.83;102509.91;4899447;29;19960;-73
2023/12/18 00:42:36;;;;;;;;;;;;;;;3.33;94.12;102503.97;4899213;29;20355;-73
2023/12/18 00:45:39;;;;;;;;;;;;;;;3.30;94.34;102509.13;4899073;29;19937;-73
2023/12/18 00:48:42;;;;;;;;;;;;;;;2.94;95.81;102520.81;4899565;29;19922;-73
2023/12/18 00:51:45;;;;;;;;;;;;;;;3.12;96.52;102514.09;4898901;29;19979;-73
2023/12/18 00:54:48;;;;;;;;;;;;;;;3.24;96.30;102509.91;4899300;29;19922;-73
2023/12/18 00:57:51;;;;;;;;;;;;;;;3.39;95.94;102496.28;4899199;29;19926;-73
2023/12/18 01:00:55;;;;;;;;;;;;;;;3.46;95.45;102508.41;4898340;29;19924;-73
2023/12/18 01:03:58;;;;;;;;;;;;;;;3.28;96.06;102512.53;4884464;29;19999;-73
2023/12/18 01:07:00;;;;;;;;;;;;;;;3.30;97.49;102509.13;4880289;29;19971;-73
2023/12/18 01:10:03;;;;;;;;;;;;;;;3.36;96.65;102501.44;4880416;29;19922;-73
2023/12/18 01:13:07;;;;;;;;;;;;;;;3.44;96.50;102504.94;4880411;29;19990;-73
2023/12/18 01:16:10;;;;;;;;;;;;;;;3.45;96.58;102511.00;4879975;29;20384;-73
2023/12/18 01:19:12;;;;;;;;;;;;;;;3.35;96.47;102515.22;4879788;29;19922;-73
2023/12/18 01:22:15;;;;;;;;;;;;;;;3.33;97.18;102516.03;4879569;29;20391;-73
2023/12/18 01:25:19;;;;;;;;;;;;;;;3.40;97.33;102498.00;4880086;29;19922;-73
2023/12/18 01:28:22;;;;;;;;;;;;;;;3.53;96.69;102514.50;4880273;29;19975;-73
2023/12/18 01:31:25;;;;;;;;;;;;;;;3.25;97.73;102509.09;4880060;29;20011;-73
2023/12/18 01:34:28;;;;;;;;;;;;;;;3.45;97.07;102505.81;4880255;29;19922;-73
2023/12/18 01:37:31;;;;;;;;;;;;;;;3.45;96.66;102501.50;4879561;29;19926;-73
2023/12/18 01:40:35;;;;;;;;;;;;;;;3.19;97.63;102508.13;4879868;29;20304;-73
2023/12/18 01:43:38;;;;;;;;;;;;;;;3.33;97.97;102495.34;4880112;29;19972;-73
2023/12/18 01:46:41;;;;;;;;;;;;;;;3.23;97.79;102495.28;4879401;29;19998;-73
2023/12/18 01:49:44;;;;;;;;;;;;;;;3.31;98.00;102492.75;4879992;29;20026;-73
2023/12/18 01:52:47;;;;;;;;;;;;;;;3.41;96.90;102494.56;4879944;29;19971;-73
2023/12/18 01:55:51;;;;;;;;;;;;;;;3.49;95.56;102507.56;4879787;29;20018;-74
2023/12/18 01:58:58;;;;;;;;;;;;;;;3.49;94.78;102497.22;4879890;29;19944;-74
2023/12/18 02:02:01;;;;;;;;;;;;;;;3.57;94.69;102492.97;4879488;29;19923;-73
2023/12/18 02:05:04;;;;;;;;;;;;;;;3.59;94.07;102500.75;4879848;29;20456;-74
2023/12/18 02:08:08;;;;;;;;;;;;;;;3.45;94.62;102495.47;4879316;29;19927;-74
2023/12/18 02:11:11;;;;;;;;;;;;;;;3.48;94.76;102505.84;4879848;29;19922;-74
2023/12/18 02:14:14;;;;;;;;;;;;;;;3.31;95.55;102500.50;4879961;29;20024;-74
2023/12/18 02:17:18;;;;;;;;;;;;;;;3.39;94.77;102511.78;4879434;29;20007;-73
2023/12/18 02:20:21;;;;;;;;;;;;;;;3.30;95.04;102516.88;4879676;29;19922;-74
2023/12/18 02:23:23;;;;;;;;;;;;;;;3.22;95.60;102518.50;4879243;29;19923;-74
2023/12/18 02:26:27;;;;;;;;;;;;;;;3.29;95.73;102509.09;4879289;29;20016;-74
2023/12/18 02:29:29;;;;;;;;;;;;;;;3.27;95.80;102509.09;4879552;29;19971;-74
2023/12/18 02:32:35;;;;;;;;;;;;;;;3.28;95.61;102508.22;4878560;29;19955;-74
2023/12/18 02:35:38;;;;;;;;;;;;;;;3.17;96.09;102500.38;4879027;29;20400;-74
2023/12/18 02:38:41;;;;;;;;;;;;;;;3.10;96.80;102502.91;4879098;29;19934;-74
2023/12/18 02:41:44;;;;;;;;;;;;;;;3.22;96.86;102503.00;4878387;29;19926;-74
2023/12/18 02:44:48;;;;;;;;;;;;;;;3.35;96.44;102502.28;4878753;29;19931;-73
2023/12/18 02:47:51;;;;;;;;;;;;;;;3.26;96.67;102503.06;4878493;29;19923;-74
2023/12/18 02:50:54;;;;;;;;;;;;;;;3.32;96.91;102504.84;4883250;29;19991;-74
2023/12/18 02:53:57;;;;;;;;;;;;;;;3.41;96.76;102510.06;4883059;29;19926;-74
2023/12/18 02:57:00;;;;;;;;;;;;;;;3.33;96.35;102509.16;4882918;29;20392;-74
2023/12/18 03:00:03;;;;;;;;;;;;;;;3.39;96.80;102505.75;4866114;29;19922;-74
2023/12/18 03:03:06;;;;;;;;;;;;;;;3.34;97.07;102505.69;4882671;29;19942;-74
2023/12/18 03:06:08;;;;;;;;;;;;;;;3.33;97.89;102500.53;4882903;29;19922;-74
2023/12/18 03:09:11;;;;;;;;;;;;;;;3.44;97.19;102504.94;4882785;29;19961;-74
2023/12/18 03:12:15;;;;;;;;;;;;;;;3.42;96.84;102509.25;4882806;29;19962;-74
2023/12/18 03:15:18;;;;;;;;;;;;;;;3.39;97.21;102511.78;4882647;29;19922;-74
2023/12/18 03:18:21;;;;;;;;;;;;;;;3.39;97.26;102501.44;4882746;29;19945;-74
2023/12/18 03:21:24;;;;;;;;;;;;;;;3.30;97.69;102503.94;4882492;29;19923;-74
2023/12/18 03:24:27;;;;;;;;;;;;;;;3.37;97.19;102502.28;4882096;29;20428;-74
2023/12/18 03:27:30;;;;;;;;;;;;;;;3.40;96.67;102502.31;4882077;29;19972;-74
2023/12/18 03:30:33;;;;;;;;;;;;;;;3.41;96.80;102510.06;4881961;29;20307;-74
2023/12/18 03:33:36;;;;;;;;;;;;;;;3.33;96.89;102506.56;4882115;29;19923;-74
2023/12/18 03:36:39;;;;;;;;;;;;;;;3.28;97.24;102497.88;4882247;29;20472;-74
2023/12/18 03:39:42;;;;;;;;;;;;;;;3.36;97.14;102505.72;4882076;29;20010;-74
2023/12/18 03:42:44;;;;;;;;;;;;;;;3.38;96.48;102499.72;4881641;29;20359;-74
2023/12/18 03:45:47;;;;;;;;;;;;;;;3.38;96.67;102491.06;4881816;29;19926;-74
2023/12/18 03:48:50;;;;;;;;;;;;;;;3.10;96.72;102498.59;4882133;29;20389;-74
2023/12/18 03:51:53;;;;;;;;;;;;;;;2.83;98.95;102493.97;4882033;29;20032;-74
2023/12/18 03:54:55;;;;;;;;;;;;;;;2.95;98.94;102491.53;4882006;29;19939;-74
2023/12/18 03:57:59;;;;;;;;;;;;;;;3.06;97.96;102489.03;4882936;29;19975;-74
2023/12/18 04:01:02;;;;;;;;;;;;;;;2.89;97.04;102486.28;4889575;29;20081;-74
2023/12/18 04:04:06;;;;;;;;;;;;;;;3.00;97.09;102482.13;4884320;29;19972;-74
2023/12/18 04:07:09;;;;;;;;;;;;;;;2.98;96.61;102460.56;4898005;29;19922;-74
2023/12/18 04:10:13;;;;;;;;;;;;;;;2.84;97.13;102464.72;4891574;29;20284;-74
2023/12/18 04:13:16;;;;;;;;;;;;;;;2.92;95.63;102465.66;4894543;29;19922;-74
2023/12/18 04:16:18;;;;;;;;;;;;;;;2.99;95.18;102464.88;4894127;29;19975;-74
2023/12/18 04:19:21;;;;;;;;;;;;;;;3.03;94.22;102460.59;4881417;29;20390;-74
2023/12/18 04:22:24;;;;;;;;;;;;;;;3.01;93.65;102470.94;4898644;29;20006;-74
2023/12/18 04:25:27;;;;;;;;;;;;;;;2.94;93.33;102466.56;4888024;29;19926;-74
2023/12/18 04:28:30;;;;;;;;;;;;;;;2.91;94.05;102463.94;4887023;29;19922;-74
2023/12/18 04:31:33;;;;;;;;;;;;;;;2.85;94.42;102465.59;4881416;29;20044;-74
2023/12/18 04:34:36;;;;;;;;;;;;;;;2.97;94.03;102457.97;4881286;29;19922;-74
2023/12/18 04:37:38;;;;;;;;;;;;;;;2.83;94.36;102457.81;4881176;29;20462;-74
2023/12/18 04:40:41;;;;;;;;;;;;;;;2.75;94.65;102464.63;4881057;29;19926;-74
2023/12/18 04:43:45;;;;;;;;;;;;;;;2.73;95.33;102467.16;4881202;29;20288;-74
2023/12/18 04:46:48;;;;;;;;;;;;;;;2.68;95.63;102457.63;4881098;29;19964;-74
2023/12/18 04:49:51;;;;;;;;;;;;;;;2.87;95.74;102469.94;4880823;29;19922;-74
2023/12/18 04:53:37;;;;;;;;;;;;;;;2.90;95.23;102462.19;4880023;29;19988;-74
2023/12/18 04:56:41;;;;;;;;;;;;;;;2.77;95.50;102462.91;4877265;29;19930;-75
2023/12/18 04:59:46;;;;;;;;;;;;;;;2.77;95.42;102448.25;4877964;29;19966;-75
2023/12/18 05:02:50;;;;;;;;;;;;;;;2.74;95.63;102447.38;4881023;29;19922;-74
2023/12/18 05:06:05;;;;;;;;;;;;;;;2.47;97.39;102460.84;4878129;29;19923;-75
2023/12/18 05:09:09;;;;;;;;;;;;;;;2.50;98.28;102459.16;4872908;29;19940;-75
2023/12/18 05:12:13;;;;;;;;;;;;;;;2.61;97.51;102451.53;4879706;29;19923;-74
2023/12/18 05:15:16;;;;;;;;;;;;;;;2.49;97.38;102452.28;4880852;29;19970;-74
2023/12/18 05:18:19;;;;;;;;;;;;;;;2.62;96.75;102452.44;4880490;29;19928;-75
2023/12/18 05:21:22;;;;;;;;;;;;;;;2.67;96.25;102450.75;4880120;29;19990;-74
2023/12/18 05:24:28;;;;;;;;;;;;;;;2.66;95.97;102449.03;4874541;29;20451;-75
2023/12/18 05:27:32;;;;;;;;;;;;;;;2.46;96.23;102452.25;4878615;29;19964;-75
2023/12/18 05:30:36;;;;;;;;;;;;;;;2.45;96.64;102435.00;4879544;29;19938;-72
2023/12/18 05:33:39;;;;;;;;;;;;;;;2.48;96.35;102434.16;4879577;29;19923;-72
2023/12/18 05:36:42;;;;;;;;;;;;;;;2.54;95.95;102435.09;4879772;29;19943;-72
2023/12/18 05:39:45;;;;;;;;;;;;;;;2.53;95.70;102433.38;4879855;29;20010;-72
2023/12/18 05:42:49;;;;;;;;;;;;;;;2.56;95.64;102438.59;4878491;29;19988;-73
2023/12/18 05:45:52;;;;;;;;;;;;;;;2.45;95.18;102440.16;4878784;29;20407;-74
2023/12/18 05:48:55;;;;;;;;;;;;;;;2.40;95.42;102431.50;4878516;29;19939;-73
2023/12/18 05:51:58;;;;;;;;;;;;;;;2.27;96.02;102439.97;4878711;29;20007;-74
2023/12/18 05:55:01;;;;;;;;;;;;;;;2.00;97.79;102456.78;4878942;29;19923;-74
2023/12/18 05:58:05;;;;;;;;;;;;;;;1.99;98.10;102451.63;4879726;29;19926;-74
2023/12/18 06:01:08;;;;;;;;;;;;;;;2.10;97.53;102443.16;4880073;29;19922;-74
2023/12/18 06:04:11;;;;;;;;;;;;;;;1.95;97.71;102442.09;4879782;29;20388;-74
2023/12/18 06:07:14;;;;;;;;;;;;;;;1.75;98.37;102439.22;4873308;29;19939;-74
2023/12/18 06:10:17;;;;;;;;;;;;;;;1.97;98.08;102443.84;4879777;29;19923;-74
2023/12/18 06:13:21;;;;;;;;;;;;;;;1.82;98.61;102441.06;4879733;29;19923;-75
2023/12/18 06:16:23;;;;;;;;;;;;;;;2.01;98.01;102452.47;4879586;29;19926;-75
2023/12/18 06:19:26;;;;;;;;;;;;;;;2.05;97.50;102449.13;4879657;29;20340;-74
2023/12/18 06:22:29;;;;;;;;;;;;;;;1.97;97.51;102440.41;4879565;29;20439;-74
2023/12/18 06:25:33;;;;;;;;;;;;;;;1.66;98.98;102441.66;4878436;29;20340;-74
2023/12/18 06:28:36;;;;;;;;;;;;;;;1.82;98.42;102446.22;4879415;29;19922;-75
2023/12/18 06:31:40;;;;;;;;;;;;;;;1.90;98.03;102452.34;4875816;29;20392;-75
2023/12/18 06:34:44;;;;;;;;;;;;;;;1.99;97.16;102449.91;4876703;29;20345;-74
2023/12/18 06:37:48;;;;;;;;;;;;;;;1.91;97.13;102440.31;4879262;29;19983;-75
2023/12/18 06:40:51;;;;;;;;;;;;;;;1.65;98.75;102438.22;4883189;29;20002;-74
2023/12/18 06:43:55;;;;;;;;;;;;;;;1.81;98.26;102444.47;4898111;29;20473;-74
2023/12/18 06:46:58;;;;;;;;;;;;;;;1.90;97.90;102452.34;4898129;29;19922;-74
2023/12/18 06:50:02;;;;;;;;;;;;;;;1.81;97.18;102457.38;4898079;29;20295;-74
2023/12/18 06:53:05;;;;;;;;;;;;;;;1.90;96.93;102462.66;4897971;29;19978;-74
2023/12/18 06:56:08;;;;;;;;;;;;;;;1.88;96.71;102477.25;4913595;29;19922;-74
2023/12/18 06:59:12;;;;;;;;;;;;;;;1.72;97.75;102472.69;4916856;29;20053;-74
2023/12/18 07:02:15;;;;;;;;;;;;;;;1.83;97.30;102471.16;4916750;29;20356;-74
2023/12/18 07:05:18;;;;;;;;;;;;;;;1.53;98.21;102459.53;4915069;29;20293;-74
2023/12/18 07:08:21;;;;;;;;;;;;;;;1.66;97.82;102467.44;4916674;29;19922;-74
2023/12/18 07:11:24;;;;;;;;;;;;;;;1.78;97.33;102465.91;4916682;29;19922;-74
2023/12/18 07:14:27;;;;;;;;;;;;;;;1.77;96.38;102468.50;4916993;29;20347;-74
2023/12/18 07:17:30;;;;;;;;;;;;;;;1.85;96.17;102477.19;4916423;29;19926;-75
2023/12/18 07:20:33;;;;;;;;;;;;;;;1.92;95.63;102479.03;4916026;29;19926;-74
2023/12/18 07:23:37;;;;;;;;;;;;;;;1.89;95.28;102473.84;4915556;29;19983;-74
2023/12/18 07:26:39;;;;;;;;;;;;;;;1.92;94.87;102473.03;4915862;29;19922;-74
2023/12/18 07:29:42;;;;;;;;;;;;;;;1.80;94.84;102476.28;4915842;29;20001;-74
2023/12/18 07:32:45;;;;;;;;;;;;;;;1.90;94.55;102472.13;4915805;29;19926;-74
2023/12/18 07:35:48;;;;;;;;;;;;;;;1.89;94.01;102463.50;4917577;29;19922;-75
2023/12/18 07:38:51;;;;;;;;;;;;;;;1.83;94.30;102466.00;4919001;29;20005;-75
2023/12/18 07:41:54;;;;;;;;;;;;;;;1.68;95.05;102473.50;4919078;29;19926;-74
2023/12/18 07:44:57;;;;;;;;;;;;;;;1.81;94.60;102472.84;4919068;29;20400;-75
2023/12/18 07:48:00;;;;;;;;;;;;;;;1.83;94.75;102469.44;4919511;29;19922;-74
2023/12/18 07:51:04;;;;;;;;;;;;;;;1.89;94.27;102467.81;4918779;29;19921;-75
2023/12/18 07:54:07;;;;;;;;;;;;;;;1.99;94.39;102482.56;4918015;29;19930;-74
2023/12/18 07:57:10;;;;;;;;;;;;;;;1.89;94.42;102471.25;4917564;29;19942;-74
2023/12/18 08:00:14;;;;;;;;;;;;;;;2.01;94.26;102468.84;4917045;29;19922;-74
2023/12/18 08:03:17;;;;;;;;;;;;;;;2.04;93.91;102468.00;4918524;29;19938;-74
2023/12/18 08:06:20;;;;;;;;;;;;;;;2.01;94.03;102473.13;4918654;29;19957;-74
2023/12/18 08:09:23;;;;;;;;;;;;;;;2.06;94.15;102471.50;4918477;29;19978;-74
2023/12/18 08:12:26;;;;;;;;;;;;;;;2.10;93.79;102465.50;4918652;29;20282;-74
2023/12/18 08:15:29;;;;;;;;;;;;;;;2.05;94.22;102464.59;4918656;29;19931;-74
2023/12/18 08:18:32;;;;;;;;;;;;;;;2.00;94.67;102467.09;4918329;29;19978;-74
2023/12/18 08:21:36;;;;;;;;;;;;;;;2.14;94.37;102461.25;4918722;29;19938;-74
2023/12/18 08:24:39;;;;;;;;;;;;;;;2.14;93.71;102451.84;4918181;29;20287;-74
2023/12/18 08:27:42;;;;;;;;;;;;;;;2.12;94.07;102462.97;4918263;29;20009;-74
2023/12/18 08:30:45;;;;;;;;;;;;;;;2.19;94.28;102457.03;4918226;29;19922;-74
2023/12/18 08:33:48;;;;;;;;;;;;;;;2.17;94.53;102462.19;4918252;29;19922;-74
2023/12/18 08:36:53;;;;;;;;;;;;;;;2.19;94.27;102462.19;4918165;29;19926;-74
2023/12/18 08:39:56;;;;;;;;;;;;;;;2.22;93.65;102463.09;4917963;29;20008;-74
2023/12/18 08:42:59;;;;;;;;;;;;;;;2.14;94.25;102463.84;4918114;29;19974;-74
2023/12/18 08:46:02;;;;;;;;;;;;;;;2.20;94.08;102456.19;4917826;29;19995;-74
2023/12/18 08:49:05;;;;;;;;;;;;;;;2.23;93.82;102457.09;4918112;29;19971;-73
2023/12/18 08:52:09;;;;;;;;;;;;;;;2.32;93.58;102446.03;4917846;29;19922;-74
2023/12/18 08:55:12;;;;;;;;;;;;;;;2.38;93.39;102446.09;4917830;29;19925;-74
2023/12/18 08:58:15;;;;;;;;;;;;;;;2.37;93.52;102446.97;4917595;29;20018;-73
2023/12/18 09:01:19;;;;;;;;;;;;;;;2.28;93.89;102449.41;4917660;29;20010;-72
2023/12/18 09:04:29;;;;;;;;;;;;;;;2.28;93.38;102452.00;4917476;29;19922;-72
2023/12/18 09:07:32;;;;;;;;;;;;;;;2.33;93.49;102452.94;4917173;29;19949;-72
2023/12/18 09:10:35;;;;;;;;;;;;;;;2.38;93.27;102447.81;4917278;29;19921;-73
2023/12/18 09:13:38;;;;;;;;;;;;;;;2.30;93.18;102450.31;4917141;29;19922;-72
2023/12/18 09:16:41;;;;;;;;;;;;;;;2.31;93.57;102457.22;4917157;29;20042;-72
2023/12/18 09:19:44;;;;;;;;;;;;;;;2.23;94.62;102448.47;4917119;29;19977;-71
2023/12/18 09:22:48;;;;;;;;;;;;;;;2.33;94.34;102451.22;4917083;29;20299;-72
2023/12/18 09:25:52;;;;;;;;;;;;;;;2.35;94.12;102453.81;4917122;29;19934;-72
2023/12/18 09:28:56;;;;;;;;;;;;;;;2.14;94.22;102453.53;4916851;29;20439;-72
2023/12/18 09:31:59;;;;;;;;;;;;;;;2.26;94.93;102456.28;4917166;29;20419;-71
2023/12/18 09:35:02;;;;;;;;;;;;;;;2.21;94.94;102460.53;4916674;29;19986;-72
2023/12/18 09:38:06;;;;;;;;;;;;;;;2.31;95.06;102459.78;4916867;29;19925;-73
2023/12/18 09:41:10;;;;;;;;;;;;;;;2.40;94.43;102452.16;4916807;29;20328;-73
2023/12/18 09:44:13;;;;;;;;;;;;;;;2.52;93.96;102452.31;4916752;29;19922;-72
2023/12/18 09:47:17;;;;;;;;;;;;;;;2.46;94.30;102462.56;4916661;29;19937;-71
2023/12/18 09:50:20;;;;;;;;;;;;;;;2.56;93.56;102464.41;4916919;29;19922;-74
2023/12/18 09:53:23;;;;;;;;;;;;;;;2.56;93.63;102459.25;4916462;29;19922;-74
2023/12/18 09:56:28;;;;;;;;;;;;;;;2.61;94.02;102468.75;4916460;29;20018;-74
2023/12/18 09:59:31;;;;;;;;;;;;;;;2.64;94.07;102451.56;4916151;29;20045;-74
2023/12/18 10:02:37;;;;;;;;;;;;;;;2.79;93.01;102445.72;4916377;29;20352;-73
2023/12/18 10:05:42;;;;;;;;;;;;;;;2.55;93.70;102436.84;4916770;29;19922;-74
2023/12/18 10:08:48;;;;;;;;;;;;;;;2.61;94.41;102430.00;4916203;29;19926;-72
2023/12/18 10:11:51;;;;;;;;;;;;;;;2.50;95.48;102428.19;4916692;29;19922;-72
2023/12/18 10:14:55;;;;;;;;;;;;;;;2.56;94.87;102409.31;4916170;29;19940;-72
2023/12/18 10:17:58;;;;;;;;;;;;;;;2.60;94.01;102410.22;4916119;29;19935;-72
2023/12/18 10:21:02;;;;;;;;;;;;;;;2.59;93.44;102411.06;4916196;29;19941;-73
2023/12/18 10:24:07;;;;;;;;;;;;;;;2.52;93.38;102402.34;4916100;29;19965;-72
2023/12/18 10:27:10;;;;;;;;;;;;;;;2.32;95.71;102402.13;4916024;29;19938;-72
2023/12/18 10:30:13;;;;;;;;;;;;;;;2.51;95.57;102400.63;4916131;29;19972;-72
2023/12/18 10:33:17;;;;;;;;;;;;;;;2.66;94.93;102397.38;4904465;29;20018;-70
2023/12/18 10:36:23;;;;;;;;;;;;;;;2.50;94.25;102392.03;4916006;29;19922;-72
2023/12/18 10:39:29;;;;;;;;;;;;;;;2.27;95.80;102391.78;4915917;29;19922;-71
2023/12/18 10:42:35;;;;;;;;;;;;;;;2.42;96.82;102388.47;4916020;29;20279;-71
2023/12/18 10:45:39;;;;;;;;;;;;;;;2.77;96.35;102396.59;4916123;29;20005;-72
2023/12/18 10:48:42;;;;;;;;;;;;;;;2.91;95.43;102389.00;4916269;29;19922;-72
2023/12/18 10:51:45;;;;;;;;;;;;;;;3.07;95.16;102386.56;4915984;29;19941;-73
2023/12/18 10:54:50;;;;;;;;;;;;;;;3.16;95.04;102389.19;4915647;29;19921;-73
2023/12/18 10:57:56;;;;;;;;;;;;;;;3.28;94.76;102384.13;4915864;29;20030;-73
2023/12/18 11:00:59;;;;;;;;;;;;;;;3.38;94.44;102390.22;4915987;29;20283;-73
2023/12/18 11:04:03;;;;;;;;;;;;;;;3.23;93.72;102381.53;4916418;29;19921;-73
2023/12/18 11:07:06;;;;;;;;;;;;;;;3.43;93.96;102384.25;4915895;29;20049;-73
2023/12/18 11:10:10;;;;;;;;;;;;;;;3.50;93.72;102378.25;4916686;29;19962;-73
2023/12/18 11:13:13;;;;;;;;;;;;;;;3.61;93.85;102367.13;4919637;29;19991;-72
2023/12/18 11:16:35;;;;;;;;;;;;;;;3.77;93.31;102366.38;4919471;29;19922;-73
2023/12/18 11:19:41;;;;;;;;;;;;;;;3.76;94.19;102356.84;4919509;29;19970;-72
2023/12/18 11:22:46;;;;;;;;;;;;;;;3.76;94.04;102349.09;4919523;29;20294;-73
2023/12/18 12:42:11;;;;;;;;;;;;;;;4.62;92.99;102227.59;5376991;23;19929;-65
2023/12/18 12:45:14;;;;;;;;;;;;;;;4.58;93.75;102225.88;4894751;29;20002;-64
2023/12/18 12:48:18;;;;;;;;;;;;;;;4.51;94.42;102229.34;4898954;29;20386;-64
2023/12/18 12:51:23;;;;;;;;;;;;;;;4.56;94.55;102228.50;4899341;29;19922;-63
2023/12/18 12:54:30;;;;;;;;;;;;;;;4.66;93.74;102219.00;4899192;29;19971;-63
2023/12/18 12:57:35;;;;;;;;;;;;;;;4.77;93.41;102216.38;4898793;29;20439;-64
2023/12/18 13:00:39;;;;;;;;;;;;;;;4.74;93.30;102212.06;4898708;29;20298;-64
2023/12/18 13:03:42;;;;;;;;;;;;;;;4.78;93.14;102207.72;4898837;29;20017;-63
2023/12/18 13:06:46;;;;;;;;;;;;;;;4.81;93.13;102200.81;4898768;29;20294;-64
2023/12/18 13:09:51;;;;;;;;;;;;;;;4.89;92.89;102193.88;4898462;29;20022;-64
2023/12/18 13:12:56;;;;;;;;;;;;;;;4.83;92.45;102196.50;4898676;29;19970;-63
2023/12/18 13:15:59;;;;;;;;;;;;;;;4.87;93.37;102195.63;4898485;29;19922;-64
2023/12/18 13:19:02;;;;;;;;;;;;;;;4.85;93.16;102194.78;4898400;29;19922;-64
2023/12/18 13:22:05;;;;;;;;;;;;;;;4.94;93.53;102198.19;4898329;29;19927;-64
2023/12/18 13:25:13;;;;;;;;;;;;;;;4.94;92.92;102198.19;4898696;29;19922;-64
2023/12/18 13:28:16;;;;;;;;;;;;;;;4.85;92.84;102186.09;4898411;29;20052;-61
2023/12/18 13:31:19;;;;;;;;;;;;;;;4.87;92.88;102185.25;4898074;29;19938;-64
2023/12/18 13:34:24;;;;;;;;;;;;;;;4.78;92.96;102182.66;4896863;29;19921;-64
2023/12/18 13:37:27;;;;;;;;;;;;;;;4.89;92.65;102180.06;4886560;29;19926;-64
2023/12/18 13:40:30;;;;;;;;;;;;;;;4.76;92.90;102181.81;4897831;29;19927;-64
2023/12/18 13:43:33;;;;;;;;;;;;;;;4.79;92.93;102179.22;4897531;29;19923;-64
2023/12/18 13:50:58;;;;;;;;;;;;;;;4.61;94.04;102184.44;4897932;29;19926;-63
2023/12/18 13:54:02;;;;;;;;;;;;;;;4.71;93.57;102188.72;4897721;29;19934;-63
2023/12/18 13:57:05;;;;;;;;;;;;;;;4.63;93.77;102185.31;4897743;29;20415;-63
2023/12/18 14:00:08;;;;;;;;;;;;;;;4.68;93.47;102183.56;4897111;29;19949;-63
2023/12/18 14:03:12;;;;;;;;;;;;;;;4.64;93.02;102168.88;4897777;29;19927;-63
2023/12/18 14:06:16;;;;;;;;;;;;;;;4.54;93.82;102173.22;4897860;29;19998;-63
2023/12/18 14:09:24;;;;;;;;;;;;;;;4.52;93.67;102179.25;4898077;29;20047;-62
2023/12/18 14:12:27;;;;;;;;;;;;;;;4.42;93.77;102178.41;4894539;29;20026;-67
2023/12/18 14:15:30;;;;;;;;;;;;;;;4.22;95.27;102178.41;4897663;29;19922;-63
2023/12/18 14:18:38;;;;;;;;;;;;;;;4.19;95.51;102181.84;4897378;29;20422;-61
2023/12/18 14:21:41;;;;;;;;;;;;;;;4.22;95.46;102170.63;4897466;29;19975;-63
2023/12/18 14:24:46;;;;;;;;;;;;;;;4.18;95.56;102169.78;4897517;29;19938;-63
2023/12/18 14:27:49;;;;;;;;;;;;;;;4.13;95.23;102175.81;4897298;29;19970;-63
2023/12/18 14:30:52;;;;;;;;;;;;;;;4.04;95.85;102175.78;4897408;29;19923;-63
2023/12/18 14:33:54;;;;;;;;;;;;;;;4.05;96.72;102167.16;4892585;29;20062;-63
2023/12/18 14:37:00;;;;;;;;;;;;;;;4.03;97.07;102163.72;4896329;29;19926;-63
2023/12/18 14:40:03;;;;;;;;;;;;;;;3.87;97.79;102158.53;4896542;29;19925;-63
2023/12/18 14:43:09;;;;;;;;;;;;;;;3.89;97.76;102163.69;4904718;29;19922;-65
2023/12/18 14:46:12;;;;;;;;;;;;;;;3.80;98.03;102161.97;4919904;29;19967;-64
2023/12/18 14:49:15;;;;;;;;;;;;;;;3.78;98.70;102158.50;4919015;29;19922;-63
2023/12/18 14:52:19;;;;;;;;;;;;;;;3.88;98.30;102164.56;4919682;29;19945;-63
2023/12/18 14:55:23;;;;;;;;;;;;;;;3.96;98.08;102168.88;4919587;29;19957;-62
2023/12/18 15:17:10;;;;;;;8.15;7.32;;;;;;;3.32;100.00;102179.06;5149964;27;20353;-62
2023/12/18 15:20:13;;;;;;;8.68;7.72;;;;;;;3.46;100.00;102190.31;5150632;27;20501;-64
2023/12/18 15:23:16;;;;;;;8.63;6.50;;;;;;;3.57;99.68;102184.31;5148782;27;20052;-64
2023/12/18 15:26:20;;;;;;;9.43;8.27;;;;;;;3.38;99.28;102171.34;5150583;27;20091;-64
2023/12/18 15:29:26;;;;;;;11.77;9.60;;;;;;;3.19;100.00;102167.81;5151110;27;20514;-65
2023/12/18 15:32:29;;;;;;;13.38;10.02;;;;;;;3.30;100.00;102169.56;5151305;27;20057;-65
2023/12/18 15:35:33;;;;;;;;;;;;;;;2.93;100.00;102166.78;5151807;27;20404;-64
2023/12/18 15:38:38;;;;;;;24.83;8.77;;;;;;;2.68;100.00;102183.84;5151341;27;19956;-64
2023/12/18 15:41:41;;;;;;;17.13;12.77;;;;;;;2.67;100.00;102182.13;5151238;27;20506;-64
2023/12/18 15:57:50;;;;;;;17.23;8.90;;;;;;;2.61;100.00;102140.75;5110421;27;20386;-64
2023/12/18 16:00:53;;;;;;;14.38;7.53;;;;;;;2.82;100.00;102151.25;5110759;28;20042;-65
2023/12/18 16:03:56;;;;;;;14.15;7.30;;;;;;;2.91;100.00;102135.78;5110333;28;20038;-66
2023/12/18 16:06:59;;;;;;;;;;;;;;;2.87;100.00;102133.16;5110770;28;20046;-64
2023/12/18 16:10:04;;;;;;;9.50;7.32;;;;;;;2.76;100.00;102140.88;5121501;27;19965;-64
2023/12/18 16:13:08;;;;;;;10.02;5.20;;;;;;;2.92;100.00;102150.44;5110249;28;20047;-65
2023/12/18 16:16:12;;;;;;;;;;;;;;;2.84;100.00;102149.53;5110581;28;20411;-66
2023/12/18 16:19:15;;;;;;;;;;;;;;;2.78;100.00;102155.53;5110563;28;19933;-65
2023/12/18 16:22:19;;;;;;;17.42;6.80;;;;;;;2.66;100.00;102160.59;5110123;28;19977;-65
2023/12/18 16:25:22;;;;;;;11.52;5.50;;;;;;;2.88;100.00;102156.44;5109911;28;20495;-64
2023/12/18 16:28:26;;;;;;;12.77;6.43;;;;;;;2.91;100.00;102166.78;5110187;28;20059;-65
2023/12/18 16:31:29;;;;;;;6.43;5.00;;;;;;;3.02;100.00;102172.00;5109884;28;20050;-64
2023/12/18 16:34:39;;;;;;;7.15;4.60;;;;;;;2.93;99.74;102149.56;5109912;28;20101;-65
2023/12/18 16:37:43;;;;;;;9.00;4.93;;;;;;;2.83;99.01;102134.88;5109624;28;20043;-65
2023/12/18 16:40:51;;;;;;;34.85;5.45;;;;;;;2.79;98.91;102130.56;5109951;28;20331;-65
2023/12/18 16:43:58;;;;;;;9.55;4.55;;;;;;;2.78;99.06;102141.75;5109969;28;20583;-65
2023/12/18 16:47:04;;;;;;;22.42;15.35;;;;;;;2.71;99.23;102124.47;5109408;28;20081;-64
2023/12/18 16:50:08;;;;;;;14.50;7.97;;;;;;;2.53;100.00;102128.69;5107918;28;20054;-65
2023/12/18 16:53:11;;;;;;;17.35;9.13;;;;;;;2.54;100.00;102103.72;5108429;28;20089;-65
2023/12/18 16:56:14;;;;;;;;;;;;;;;2.42;100.00;102116.53;5109416;28;20054;-65
2023/12/18 16:59:18;;;;;;;17.13;6.50;;;;;;;2.52;100.00;102106.31;5095807;28;19925;-65
2023/12/18 17:02:21;;;;;;;;;;;;;;;2.56;99.85;102115.78;5096071;28;20109;-65
2023/12/18 17:05:24;;;;;;;13.60;5.50;;;;;;;2.55;98.88;102111.50;5095583;28;20003;-65
2023/12/18 17:08:28;;;;;;;;;;;;;;;2.45;99.38;102122.59;5096189;28;20209;-65
2023/12/18 17:11:32;;;;;;;21.95;5.32;;;;;;;2.30;99.78;102133.69;5094925;28;19960;-65
2023/12/18 17:14:35;;;;;;;;;;;;;;;2.20;100.00;102138.75;5095901;28;20503;-65
2023/12/18 17:17:40;;;;;;;15.48;6.00;;;;;;;2.25;100.00;102131.91;5095314;28;19923;-64
2023/12/18 17:20:43;;;;;;;10.80;4.57;;;;;;;2.36;100.00;102134.56;5095364;28;20067;-64
2023/12/18 17:23:47;;;;;;;18.38;4.72;;;;;;;2.32;100.00;102113.88;5095198;28;20047;-64
2023/12/18 17:26:50;;;;;;;15.77;4.40;;;;;;;2.34;99.81;102106.16;5095190;28;20039;-64
2023/12/18 17:29:53;;;;;;;7.95;5.63;;;;;;;2.33;99.97;102101.88;5095116;28;20148;-65
2023/12/18 17:32:57;;;;;;;;;;;;;;;2.41;100.00;102101.91;5095637;28;20043;-66
2023/12/18 17:36:01;;;;;;;11.38;6.32;;;;;;;2.44;99.80;102097.63;5095137;28;20335;-65